Time;durP1;ratioP1;P1;durP2;ratioP2;P2;SDS_P1;SDS_P2;PMS_P1;PMS_P2;Temp;Humidity;BMP_temperature;BMP_pressure;BME280_temperature;BME280_humidity;BME280_pressure;Samples;Min_cycle;Max_cycle;Signal;HPM_P1;HPM_P2
2023/01/30 00:00:14;;;;;;;;;;;-0.30;99.90;;;;;;5092149;28;19958;-68
2023/01/30 00:02:39;;;;;;;;;;;-0.30;99.90;;;;;;5094027;28;20009;-68
2023/01/30 00:05:05;;;;;;;;;;;-0.20;99.90;;;;;;5093797;28;20352;-69
2023/01/30 00:07:30;;;;;;;;;;;-0.20;99.90;;;;;;5092561;28;19916;-68
2023/01/30 00:09:56;;;;;;;;;;;-0.20;99.90;;;;;;5091249;28;19947;-68
2023/01/30 00:12:22;;;;;;;;;;;-0.20;99.90;;;;;;5091475;28;19961;-68
2023/01/30 00:14:47;;;;;;;;;;;-0.20;99.90;;;;;;5093430;28;19921;-68
2023/01/30 00:17:13;;;;;;;;;;;-0.20;99.90;;;;;;5095516;28;19912;-69
2023/01/30 00:19:38;;;;;;;;;;;-0.30;99.90;;;;;;5095451;28;19950;-69
2023/01/30 00:22:04;;;;;;;;;;;-0.30;99.90;;;;;;5095455;28;19965;-68
2023/01/30 00:24:29;;;;;;;;;;;-0.30;99.90;;;;;;5094001;28;20347;-69
2023/01/30 00:26:55;;;;;;;;;;;-0.30;99.90;;;;;;5095094;28;19912;-69
2023/01/30 00:29:21;;;;;;;;;;;-0.30;99.90;;;;;;5095039;28;19959;-69
2023/01/30 00:31:46;;;;;;;;;;;-0.30;99.90;;;;;;5102243;28;19937;-68
2023/01/30 00:34:12;;;;;;;;;;;-0.40;99.90;;;;;;5111742;28;19920;-68
2023/01/30 00:36:37;;;;;;;;;;;-0.50;99.90;;;;;;5099057;28;19912;-68
2023/01/30 00:39:03;;;;;;;;;;;-0.50;99.90;;;;;;5113822;28;20316;-68
2023/01/30 00:47:04;;;;;;;;;;;-0.40;99.90;;;;;;5114896;28;19911;-68
2023/01/30 00:47:04;;;;;;;;;;;-0.40;99.90;;;;;;5113237;28;19918;-68
2023/01/30 00:49:30;;;;;;;;;;;-0.50;99.90;;;;;;5113462;28;20400;-68
2023/01/30 00:51:55;;;;;;;;;;;-0.50;99.90;;;;;;5113161;28;19976;-68
2023/01/30 00:54:21;;;;;;;;;;;-0.50;99.90;;;;;;5110358;28;20252;-68
2023/01/30 00:56:46;;;;;;;;;;;-0.50;99.90;;;;;;5105581;28;19911;-68
2023/01/30 00:59:12;;;;;;;;;;;-0.50;99.90;;;;;;5094736;28;19916;-68
2023/01/30 01:01:38;;;;;;;;;;;-0.60;99.90;;;;;;5094007;28;20471;-68
2023/01/30 01:04:05;;;;;;;;;;;-0.50;99.90;;;;;;5094434;28;19919;-68
2023/01/30 01:06:30;;;;;;;;;;;-0.40;99.90;;;;;;5094692;28;19916;-69
2023/01/30 01:08:56;;;;;;;;;;;-0.40;99.90;;;;;;5094771;28;19923;-69
2023/01/30 01:11:24;;;;;;;;;;;-0.40;99.90;;;;;;5094890;28;19952;-69
2023/01/30 01:13:54;;;;;;;;;;;-0.40;99.90;;;;;;5094123;28;20052;-68
2023/01/30 01:16:20;;;;;;;;;;;-0.30;99.90;;;;;;5083574;28;19912;-69
2023/01/30 01:18:46;;;;;;;;;;;-0.40;99.90;;;;;;5093328;28;19923;-68
2023/01/30 01:21:12;;;;;;;;;;;-0.40;99.90;;;;;;5094410;28;19913;-69
2023/01/30 01:23:38;;;;;;;;;;;-0.40;99.90;;;;;;5094159;28;19912;-69
2023/01/30 01:26:04;;;;;;;;;;;-0.40;99.90;;;;;;5094420;28;20382;-69
2023/01/30 01:28:29;;;;;;;;;;;-0.30;99.90;;;;;;5092979;28;19916;-69
2023/01/30 01:30:56;;;;;;;;;;;-0.30;99.90;;;;;;5099367;28;19912;-69
2023/01/30 01:33:25;;;;;;;;;;;-0.30;99.90;;;;;;5109306;28;19919;-69
2023/01/30 01:35:54;;;;;;;;;;;-0.30;99.90;;;;;;5098074;28;20407;-69
2023/01/30 01:38:19;;;;;;;;;;;-0.30;99.90;;;;;;5101942;28;19918;-69
2023/01/30 01:41:00;;;;;;;;;;;-0.40;99.90;;;;;;5095244;28;20002;-69
2023/01/30 01:43:26;;;;;;;;;;;-0.40;99.90;;;;;;5092651;28;19912;-69
2023/01/30 01:46:21;;;;;;;;;;;-0.50;99.90;;;;;;5101029;28;19919;-69
2023/01/30 01:48:49;;;;;;;;;;;-0.60;99.90;;;;;;5084933;28;20014;-69
2023/01/30 01:51:17;;;;;;;;;;;-0.50;99.90;;;;;;5094100;28;19925;-69
2023/01/30 01:53:46;;;;;;;;;;;-0.50;99.90;;;;;;5095413;28;20383;-69
2023/01/30 01:56:13;;;;;;;;;;;-0.50;99.90;;;;;;5100257;28;20289;-68
2023/01/30 01:58:41;;;;;;;;;;;-0.50;99.90;;;;;;5113826;28;20411;-69
2023/01/30 02:01:07;;;;;;;;;;;-0.50;99.90;;;;;;5101161;28;19916;-69
2023/01/30 02:03:35;;;;;;;;;;;-0.60;99.90;;;;;;5105542;28;20274;-68
2023/01/30 02:06:02;;;;;;;;;;;-0.60;99.90;;;;;;5110630;28;19961;-69
2023/01/30 02:08:36;;;;;;;;;;;-0.50;99.90;;;;;;5113931;28;20003;-69
2023/01/30 02:11:14;;;;;;;;;;;-0.60;99.90;;;;;;5113732;28;19926;-69
2023/01/30 02:13:39;;;;;;;;;;;-0.60;99.90;;;;;;5112371;28;19912;-68
2023/01/30 02:16:06;;;;;;;;;;;-0.60;99.90;;;;;;5108062;28;19918;-69
2023/01/30 02:18:33;;;;;;;;;;;-0.60;99.90;;;;;;5124764;28;19955;-69
2023/01/30 02:21:05;;;;;;;;;;;-0.60;99.90;;;;;;5102716;28;20403;-68
2023/01/30 02:23:39;;;;;;;;;;;-0.70;99.90;;;;;;5114109;28;19912;-69
2023/01/30 02:26:23;;;;;;;;;;;-0.70;99.90;;;;;;5096745;28;20009;-68
2023/01/30 02:29:07;;;;;;;;;;;-0.70;99.90;;;;;;5091386;28;19912;-69
2023/01/30 02:31:43;;;;;;;;;;;-0.80;99.90;;;;;;5098639;28;19943;-68
2023/01/30 02:34:08;;;;;;;;;;;-0.90;99.90;;;;;;5096612;28;19920;-68
2023/01/30 02:37:00;;;;;;;;;;;-0.90;99.90;;;;;;5096951;28;19927;-68
2023/01/30 02:39:25;;;;;;;;;;;-0.90;99.90;;;;;;5115473;28;19919;-69
2023/01/30 02:42:06;;;;;;;;;;;-1.00;99.90;;;;;;5112104;28;20244;-68
2023/01/30 02:44:36;;;;;;;;;;;-1.00;99.90;;;;;;5102474;28;19912;-68
2023/01/30 02:47:16;;;;;;;;;;;-1.00;99.90;;;;;;5111858;28;19998;-68
2023/01/30 02:49:47;;;;;;;;;;;-1.10;99.90;;;;;;5109751;28;19920;-68
2023/01/30 02:52:13;;;;;;;;;;;-1.10;99.90;;;;;;5105553;28;20434;-68
2023/01/30 02:54:39;;;;;;;;;;;-1.10;99.90;;;;;;5113604;28;19965;-68
2023/01/30 02:57:21;;;;;;;;;;;-1.10;99.90;;;;;;5108261;28;19916;-68
2023/01/30 02:59:48;;;;;;;;;;;-1.10;99.90;;;;;;5096855;28;19916;-69
2023/01/30 03:02:24;;;;;;;;;;;-1.10;99.90;;;;;;5096976;28;20422;-68
2023/01/30 03:05:01;;;;;;;;;;;-1.20;99.90;;;;;;5095635;28;20007;-69
2023/01/30 03:07:27;;;;;;;;;;;-1.20;99.90;;;;;;5094965;28;19938;-69
2023/01/30 03:09:53;;;;;;;;;;;-1.20;99.90;;;;;;5096790;28;19912;-69
2023/01/30 03:12:32;;;;;;;;;;;-1.20;99.90;;;;;;5096349;28;19912;-69
2023/01/30 03:15:02;;;;;;;;;;;-1.30;99.90;;;;;;5096272;28;20010;-69
2023/01/30 03:17:28;;;;;;;;;;;-1.30;99.90;;;;;;5094993;28;19916;-69
2023/01/30 03:19:54;;;;;;;;;;;-1.40;99.90;;;;;;5096239;28;19919;-69
2023/01/30 03:22:20;;;;;;;;;;;-1.40;99.90;;;;;;5096614;28;19912;-69
2023/01/30 03:24:46;;;;;;;;;;;-1.50;99.90;;;;;;5096633;28;19913;-69
2023/01/30 03:27:12;;;;;;;;;;;-1.50;99.90;;;;;;5096635;28;19918;-69
2023/01/30 03:29:38;;;;;;;;;;;-1.50;99.90;;;;;;5099794;28;20434;-69
2023/01/30 03:32:03;;;;;;;;;;;-1.50;99.90;;;;;;5107721;28;20240;-69
2023/01/30 03:34:29;;;;;;;;;;;-1.40;99.90;;;;;;5094670;28;20014;-69
2023/01/30 03:36:55;;;;;;;;;;;-1.50;99.90;;;;;;5096367;28;19912;-70
2023/01/30 03:39:22;;;;;;;;;;;-1.40;99.90;;;;;;5095819;28;19920;-70
2023/01/30 03:41:47;;;;;;;;;;;-1.40;99.90;;;;;;5095021;28;20268;-69
2023/01/30 03:44:13;;;;;;;;;;;-1.50;99.90;;;;;;5114630;28;19933;-69
2023/01/30 03:46:38;;;;;;;;;;;-1.60;99.90;;;;;;5114558;28;20010;-70
2023/01/30 03:49:04;;;;;;;;;;;-1.60;99.90;;;;;;5114354;28;20016;-70
2023/01/30 03:51:30;;;;;;;;;;;-1.60;99.90;;;;;;5095492;28;20471;-69
2023/01/30 03:53:55;;;;;;;;;;;-1.60;99.90;;;;;;5094546;28;19942;-70
2023/01/30 03:56:21;;;;;;;;;;;-1.70;99.90;;;;;;5096635;28;19962;-70
2023/01/30 03:58:46;;;;;;;;;;;-1.60;99.90;;;;;;5099565;28;19915;-70
2023/01/30 04:01:12;;;;;;;;;;;-1.50;99.90;;;;;;5106405;28;19943;-70
2023/01/30 04:03:37;;;;;;;;;;;-1.60;99.90;;;;;;5107600;28;19912;-70
2023/01/30 04:06:03;;;;;;;;;;;-1.50;99.90;;;;;;5104211;28;19916;-70
2023/01/30 04:08:28;;;;;;;;;;;-1.60;99.90;;;;;;5096443;28;19912;-70
2023/01/30 04:10:54;;;;;;;;;;;-1.70;99.90;;;;;;5095444;28;20252;-70
2023/01/30 04:13:20;;;;;;;;;;;-1.70;99.90;;;;;;5095793;28;19912;-70
2023/01/30 04:15:45;;;;;;;;;;;-1.60;99.90;;;;;;5095409;28;19920;-69
2023/01/30 04:18:11;;;;;;;;;;;-1.60;99.90;;;;;;5096063;28;19920;-70
2023/01/30 04:20:37;;;;;;;;;;;-1.60;99.90;;;;;;5105067;28;19919;-69
2023/01/30 04:23:03;;;;;;;;;;;-1.70;99.90;;;;;;5115513;28;19912;-70
2023/01/30 04:25:28;;;;;;;;;;;-1.70;99.90;;;;;;5115539;28;20240;-69
2023/01/30 04:27:54;;;;;;;;;;;-1.70;99.90;;;;;;5105556;28;20021;-69
2023/01/30 04:30:20;;;;;;;;;;;-1.70;99.90;;;;;;5095266;28;19912;-69
2023/01/30 04:32:45;;;;;;;;;;;-1.70;99.90;;;;;;5106003;28;19912;-69
2023/01/30 04:35:11;;;;;;;;;;;-1.80;99.90;;;;;;5094923;28;19956;-69
2023/01/30 04:37:36;;;;;;;;;;;-1.80;99.90;;;;;;5095179;28;19919;-69
2023/01/30 04:40:02;;;;;;;;;;;-1.80;99.90;;;;;;5127329;27;19938;-69
2023/01/30 04:42:28;;;;;;;;;;;-1.80;99.90;;;;;;5104128;28;20404;-69
2023/01/30 04:44:53;;;;;;;;;;;-1.70;99.90;;;;;;5114774;28;19939;-69
2023/01/30 04:47:19;;;;;;;;;;;-1.70;99.90;;;;;;5104461;28;19962;-69
2023/01/30 04:49:44;;;;;;;;;;;-1.70;99.90;;;;;;5094797;28;19920;-69
2023/01/30 04:52:10;;;;;;;;;;;-1.90;99.90;;;;;;5077942;28;19913;-69
2023/01/30 04:54:36;;;;;;;;;;;-1.90;99.90;;;;;;5095482;28;20303;-69
2023/01/30 04:57:01;;;;;;;;;;;-1.90;99.90;;;;;;5104666;28;19912;-69
2023/01/30 04:59:27;;;;;;;;;;;-1.90;99.90;;;;;;5092859;28;20261;-69
2023/01/30 05:01:53;;;;;;;;;;;-1.90;99.90;;;;;;5094681;28;19954;-69
2023/01/30 05:04:19;;;;;;;;;;;-1.90;99.90;;;;;;5094734;28;20014;-69
2023/01/30 05:06:44;;;;;;;;;;;-1.80;99.90;;;;;;5094256;28;20486;-69
2023/01/30 05:09:10;;;;;;;;;;;-1.80;99.90;;;;;;5094681;28;19916;-69
2023/01/30 05:11:36;;;;;;;;;;;-1.80;99.90;;;;;;5094660;28;19916;-69
2023/01/30 05:14:02;;;;;;;;;;;-1.80;99.90;;;;;;5094559;28;19920;-69
2023/01/30 05:16:27;;;;;;;;;;;-1.80;99.90;;;;;;5093149;28;19969;-69
2023/01/30 05:18:53;;;;;;;;;;;-1.80;99.90;;;;;;5109875;28;19919;-69
2023/01/30 05:21:24;;;;;;;;;;;-1.80;99.90;;;;;;5097895;28;19979;-69
2023/01/30 05:23:51;;;;;;;;;;;-1.80;99.90;;;;;;5094188;28;19923;-69
2023/01/30 05:26:17;;;;;;;;;;;-1.80;99.90;;;;;;5066901;28;19912;-69
2023/01/30 05:28:42;;;;;;;;;;;-1.80;99.90;;;;;;5059298;28;19912;-69
2023/01/30 05:31:12;;;;;;;;;;;-1.70;99.90;;;;;;5092328;28;19912;-69
2023/01/30 05:33:38;;;;;;;;;;;-1.70;99.90;;;;;;5056060;28;20213;-69
2023/01/30 05:36:04;;;;;;;;;;;-1.70;99.90;;;;;;5089283;28;19942;-69
2023/01/30 05:38:29;;;;;;;;;;;-1.70;99.90;;;;;;5083373;28;19917;-69
2023/01/30 05:40:58;;;;;;;;;;;-1.80;99.90;;;;;;5093911;28;20355;-69
2023/01/30 05:43:24;;;;;;;;;;;-1.80;99.90;;;;;;5078315;28;19919;-69
2023/01/30 05:45:53;;;;;;;;;;;-1.80;99.90;;;;;;5083074;28;19916;-69
2023/01/30 05:48:19;;;;;;;;;;;-1.80;99.90;;;;;;5094205;28;19919;-69
2023/01/30 05:50:45;;;;;;;;;;;-2.00;99.90;;;;;;5092156;28;19912;-69
2023/01/30 05:53:11;;;;;;;;;;;-2.30;99.90;;;;;;5073588;28;19958;-69
2023/01/30 05:55:37;;;;;;;;;;;-2.40;99.90;;;;;;5088368;28;19935;-69
2023/01/30 05:58:02;;;;;;;;;;;-2.40;99.90;;;;;;5073518;28;19913;-69
2023/01/30 06:00:28;;;;;;;;;;;-2.40;99.90;;;;;;5083275;28;19913;-69
2023/01/30 06:02:54;;;;;;;;;;;-2.30;99.90;;;;;;5093952;28;19920;-69
2023/01/30 06:05:19;;;;;;;;;;;-2.20;99.90;;;;;;5093339;28;19912;-69
2023/01/30 06:07:45;;;;;;;;;;;-1.30;99.90;;;;;;5082886;28;20396;-68
2023/01/30 06:10:10;;;;;;;;;;;-1.60;99.90;;;;;;5088252;28;19973;-69
2023/01/30 06:12:36;;;;;;;;;;;-1.80;99.90;;;;;;5090241;28;20390;-68
2023/01/30 06:15:02;;;;;;;;;;;-2.00;99.90;;;;;;5077144;28;20054;-68
2023/01/30 06:17:27;;;;;;;;;;;-2.00;99.90;;;;;;5086915;28;20362;-69
2023/01/30 06:19:53;;;;;;;;;;;-2.10;99.90;;;;;;5114421;28;19919;-69
2023/01/30 06:22:18;;;;;;;;;;;-2.20;99.90;;;;;;5097932;28;19916;-69
2023/01/30 06:24:44;;;;;;;;;;;-2.40;99.90;;;;;;5098021;28;19981;-69
2023/01/30 06:27:09;;;;;;;;;;;-2.40;99.90;;;;;;5097431;28;20268;-69
2023/01/30 06:29:35;;;;;;;;;;;-2.50;99.90;;;;;;5100321;28;20386;-69
2023/01/30 06:32:01;;;;;;;;;;;-2.40;99.90;;;;;;5096736;28;19923;-69
2023/01/30 06:34:26;;;;;;;;;;;-2.40;99.90;;;;;;5129229;27;19920;-69
2023/01/30 06:36:52;;;;;;;;;;;-2.30;99.90;;;;;;5096295;28;20003;-69
2023/01/30 06:39:17;;;;;;;;;;;-2.40;99.90;;;;;;5126158;27;20317;-69
2023/01/30 06:41:43;;;;;;;;;;;-2.40;99.90;;;;;;5098911;28;19912;-69
2023/01/30 06:44:09;;;;;;;;;;;-2.30;99.90;;;;;;5098954;28;20022;-69
2023/01/30 06:46:34;;;;;;;;;;;-2.30;99.90;;;;;;5107378;28;19916;-69
2023/01/30 06:49:00;;;;;;;;;;;-2.40;99.90;;;;;;5108151;28;19956;-69
2023/01/30 06:51:26;;;;;;;;;;;-2.30;99.90;;;;;;5100961;28;20382;-69
2023/01/30 06:53:52;;;;;;;;;;;-2.30;99.90;;;;;;5106640;28;19972;-69
2023/01/30 06:56:18;;;;;;;;;;;-2.20;99.90;;;;;;5098024;28;20352;-69
2023/01/30 06:58:44;;;;;;;;;;;-2.30;99.90;;;;;;5096451;28;19957;-69
2023/01/30 07:01:10;;;;;;;;;;;-2.20;99.90;;;;;;5095854;28;19912;-69
2023/01/30 07:03:36;;;;;;;;;;;-2.20;99.90;;;;;;5097020;28;19919;-69
2023/01/30 07:06:01;;;;;;;;;;;-2.10;99.90;;;;;;5096819;28;20442;-69
2023/01/30 07:08:30;;;;;;;;;;;-2.20;99.90;;;;;;5096705;28;20272;-69
2023/01/30 07:10:55;;;;;;;;;;;-2.10;99.90;;;;;;5096278;28;19912;-68
2023/01/30 07:13:21;;;;;;;;;;;-2.20;99.90;;;;;;5096557;28;19918;-68
2023/01/30 07:15:46;;;;;;;;;;;-2.20;99.90;;;;;;5095428;28;19973;-68
2023/01/30 07:18:12;;;;;;;;;;;-2.10;99.90;;;;;;5103627;28;20269;-68
2023/01/30 07:20:38;;;;;;;;;;;-2.10;99.90;;;;;;5106222;28;19957;-68
2023/01/30 07:23:03;;;;;;;;;;;-2.00;99.90;;;;;;5094633;28;19912;-68
2023/01/30 07:25:29;;;;;;;;;;;-2.10;99.90;;;;;;5070951;28;19912;-68
2023/01/30 07:27:57;;;;;;;;;;;-2.10;99.90;;;;;;5056560;28;20011;-69
2023/01/30 07:30:23;;;;;;;;;;;-2.10;99.90;;;;;;5088415;28;19938;-69
2023/01/30 07:32:49;;;;;;;;;;;-2.00;99.90;;;;;;5088579;28;20249;-69
2023/01/30 07:35:14;;;;;;;;;;;-2.00;99.90;;;;;;5091723;28;20424;-68
2023/01/30 07:37:40;;;;;;;;;;;-1.80;99.90;;;;;;5071620;28;19912;-69
2023/01/30 07:40:07;;;;;;;;;;;-1.60;99.90;;;;;;5084741;28;19914;-69
2023/01/30 07:42:32;;;;;;;;;;;-1.40;99.90;;;;;;5075297;28;19919;-69
2023/01/30 07:44:58;;;;;;;;;;;-1.20;99.90;;;;;;5078264;28;19913;-69
2023/01/30 07:47:23;;;;;;;;;;;-1.00;99.90;;;;;;5075775;28;19955;-69
2023/01/30 07:49:49;;;;;;;;;;;-0.80;99.90;;;;;;5084908;28;19998;-70
2023/01/30 07:52:14;;;;;;;;;;;0.40;99.90;;;;;;5080541;28;20015;-67
2023/01/30 07:54:40;;;;;;;;;;;0.70;99.90;;;;;;5074814;28;19931;-68
2023/01/30 07:57:06;;;;;;;;;;;-0.80;99.90;;;;;;5074169;28;19913;-68
2023/01/30 07:59:31;;;;;;;;;;;-0.90;99.90;;;;;;5075763;28;20342;-67
2023/01/30 08:01:57;;;;;;;;;;;-0.80;99.90;;;;;;5094553;28;19912;-68
2023/01/30 08:04:23;;;;;;;;;;;-0.70;99.90;;;;;;5095891;28;19995;-68
2023/01/30 08:06:48;;;;;;;;;;;-0.60;99.90;;;;;;5077640;28;19965;-68
2023/01/30 08:09:14;;;;;;;;;;;-0.60;99.90;;;;;;5076758;28;20283;-68
2023/01/30 08:11:39;;;;;;;;;;;-0.50;99.90;;;;;;5075531;28;19912;-67
2023/01/30 08:14:05;;;;;;;;;;;-0.40;99.90;;;;;;5076215;28;19916;-67
2023/01/30 08:16:31;;;;;;;;;;;-0.30;99.90;;;;;;5094882;28;20015;-67
2023/01/30 08:18:57;;;;;;;;;;;-0.30;99.90;;;;;;5094723;28;19916;-67
2023/01/30 08:21:22;;;;;;;;;;;-0.40;99.90;;;;;;5080825;28;19920;-68
2023/01/30 08:23:48;;;;;;;;;;;-0.10;99.90;;;;;;5074715;28;19912;-67
2023/01/30 08:26:14;;;;;;;;;;;-0.30;99.90;;;;;;5057298;28;19913;-67
2023/01/30 08:28:39;;;;;;;;;;;-0.30;99.90;;;;;;5075446;28;19912;-67
2023/01/30 08:31:08;;;;;;;;;;;-0.10;99.90;;;;;;5068575;28;19920;-67
2023/01/30 08:33:33;;;;;;;;;;;-0.10;99.90;;;;;;5094493;28;19912;-67
2023/01/30 08:35:59;;;;;;;;;;;-0.20;99.90;;;;;;5095062;28;20347;-67
2023/01/30 08:38:24;;;;;;;;;;;0.00;99.90;;;;;;5095155;28;19912;-67
2023/01/30 08:40:50;;;;;;;;;;;0.00;99.90;;;;;;5067461;28;19913;-67
2023/01/30 08:43:16;;;;;;;;;;;-0.20;99.90;;;;;;5074848;28;19913;-66
2023/01/30 08:45:41;;;;;;;;;;;-0.30;99.90;;;;;;5074944;28;19912;-66
2023/01/30 08:48:07;;;;;;;;;;;-0.30;99.90;;;;;;5074991;28;19979;-66
2023/01/30 08:50:33;;;;;;;;;;;-0.40;99.90;;;;;;5081461;28;19912;-66
2023/01/30 08:53:02;;;;;;;;;;;-0.20;99.90;;;;;;5076637;28;19919;-66
2023/01/30 08:55:28;;;;;;;;;;;-0.10;99.90;;;;;;5094778;28;19920;-65
2023/01/30 08:57:55;;;;;;;;;;;0.10;99.90;;;;;;5095024;28;19964;-66
2023/01/30 09:00:20;;;;;;;;;;;0.00;99.90;;;;;;5072360;28;19920;-67
2023/01/30 09:02:46;;;;;;;;;;;0.00;99.90;;;;;;5074495;28;20372;-67
2023/01/30 09:05:11;;;;;;;;;;;-0.20;99.90;;;;;;5061161;28;19919;-67
2023/01/30 09:07:37;;;;;;;;;;;-0.20;99.90;;;;;;5059944;28;19935;-68
2023/01/30 09:10:03;;;;;;;;;;;0.30;99.90;;;;;;5052772;28;19912;-67
2023/01/30 09:12:28;;;;;;;;;;;0.40;99.90;;;;;;5091424;28;19912;-67
2023/01/30 09:14:56;;;;;;;;;;;1.40;99.90;;;;;;5074811;28;19920;-67
2023/01/30 09:17:22;;;;;;;;;;;0.80;99.90;;;;;;5056465;28;20419;-67
2023/01/30 09:19:48;;;;;;;;;;;0.70;99.90;;;;;;5086537;28;19996;-68
2023/01/30 09:22:14;;;;;;;;;;;0.70;99.90;;;;;;5083278;28;20007;-69
2023/01/30 09:24:40;;;;;;;;;;;0.50;99.90;;;;;;5087878;28;20003;-68
2023/01/30 09:27:05;;;;;;;;;;;0.90;99.90;;;;;;5094208;28;20418;-69
2023/01/30 09:29:31;;;;;;;;;;;1.10;99.90;;;;;;5092239;28;19912;-67
2023/01/30 09:31:57;;;;;;;;;;;1.90;99.90;;;;;;5091294;28;19912;-69
2023/01/30 09:34:32;;;;;;;;;;;1.90;99.90;;;;;;5074390;28;19920;-70
2023/01/30 09:37:01;;;;;;;;;;;1.50;99.90;;;;;;5071647;28;20011;-67
2023/01/30 09:39:27;;;;;;;;;;;2.00;99.90;;;;;;5079698;28;19912;-69
2023/01/30 09:41:57;;;;;;;;;;;2.30;99.90;;;;;;5093170;28;19919;-71
2023/01/30 09:44:29;;;;;;;;;;;2.60;99.90;;;;;;5089160;28;19912;-64
2023/01/30 09:47:01;;;;;;;;;;;2.60;99.90;;;;;;5097734;28;19918;-69
2023/01/30 09:49:37;;;;;;;;;;;3.00;99.90;;;;;;5098393;28;19912;-70
2023/01/30 09:52:13;;;;;;;;;;;2.90;99.90;;;;;;5098440;28;19946;-66
2023/01/30 09:54:41;;;;;;;;;;;3.20;99.90;;;;;;5089085;28;19950;-70
2023/01/30 09:57:09;;;;;;;;;;;3.10;99.90;;;;;;5079916;28;19959;-68
2023/01/30 09:59:41;;;;;;;;;;;2.70;99.90;;;;;;5075471;28;19956;-70
2023/01/30 10:02:23;;;;;;;;;;;2.40;99.90;;;;;;5094912;28;19913;-70
2023/01/30 10:04:49;;;;;;;;;;;2.40;99.90;;;;;;5096221;28;20383;-68
2023/01/30 10:07:30;;;;;;;;;;;2.50;99.90;;;;;;5094837;28;19958;-69
2023/01/30 10:10:27;;;;;;;;;;;2.20;99.90;;;;;;5096256;28;19912;-66
2023/01/30 10:13:12;;;;;;;;;;;2.30;99.90;;;;;;5072655;28;20006;-69
2023/01/30 10:15:55;;;;;;;;;;;2.20;99.90;;;;;;5097142;28;19920;-66
2023/01/30 10:18:21;;;;;;;;;;;2.40;99.90;;;;;;5095198;28;19920;-67
2023/01/30 10:21:05;;;;;;;;;;;2.40;99.90;;;;;;5092441;28;19919;-69
2023/01/30 10:23:33;;;;;;;;;;;2.20;99.90;;;;;;5084020;28;19982;-69
2023/01/30 10:26:19;;;;;;;;;;;2.20;99.90;;;;;;5075769;28;20417;-69
2023/01/30 10:28:50;;;;;;;;;;;2.10;99.90;;;;;;5075233;28;19912;-65
2023/01/30 10:31:18;;;;;;;;;;;1.80;99.90;;;;;;5086022;28;19912;-66
2023/01/30 10:33:44;;;;;;;;;;;1.90;99.90;;;;;;5095447;28;20429;-69
2023/01/30 10:36:11;;;;;;;;;;;1.80;99.90;;;;;;5094995;28;19962;-67
2023/01/30 10:38:48;;;;;;;;;;;1.80;99.90;;;;;;5094036;28;19994;-68
2023/01/30 10:41:28;;;;;;;;;;;1.70;99.90;;;;;;5094905;28;19912;-67
2023/01/30 10:44:00;;;;;;;;;;;1.80;99.90;;;;;;5094753;28;20371;-69
2023/01/30 10:46:25;;;;;;;;;;;1.80;99.90;;;;;;5097163;28;19912;-67
2023/01/30 10:48:57;;;;;;;;;;;2.10;99.90;;;;;;5097331;28;20003;-68
2023/01/30 10:51:27;;;;;;;;;;;2.10;99.90;;;;;;5092662;28;20383;-69
2023/01/30 10:54:16;;;;;;;;;;;2.10;99.90;;;;;;5093517;28;19938;-69
2023/01/30 10:56:41;;;;;;;;;;;2.20;99.90;;;;;;5082957;28;19920;-67
2023/01/30 10:59:18;;;;;;;;;;;2.20;99.90;;;;;;5093929;28;19919;-67
2023/01/30 11:01:47;;;;;;;;;;;2.20;99.90;;;;;;5095212;28;20360;-69
2023/01/30 11:04:21;;;;;;;;;;;2.10;99.90;;;;;;5094487;28;20426;-67
2023/01/30 11:06:47;;;;;;;;;;;2.00;99.90;;;;;;5093455;28;19982;-67
2023/01/30 11:09:13;;;;;;;;;;;2.00;99.90;;;;;;5096076;28;19944;-69
2023/01/30 11:11:46;;;;;;;;;;;2.00;99.90;;;;;;5093744;28;19970;-68
2023/01/30 11:14:12;;;;;;;;;;;1.90;99.90;;;;;;5094553;28;19916;-69
2023/01/30 11:16:48;;;;;;;;;;;2.00;99.90;;;;;;5095068;28;19994;-67
2023/01/30 11:19:15;;;;;;;;;;;2.20;99.90;;;;;;5096446;28;19924;-66
2023/01/30 11:21:43;;;;;;;;;;;2.10;99.90;;;;;;5095412;28;19920;-66
2023/01/30 11:24:15;;;;;;;;;;;2.20;99.90;;;;;;5094896;28;19935;-67
2023/01/30 11:26:41;;;;;;;;;;;2.40;99.90;;;;;;5094796;28;19920;-69
2023/01/30 11:29:22;;;;;;;;;;;2.40;99.90;;;;;;5095046;28;20359;-67
2023/01/30 11:31:48;;;;;;;;;;;2.50;99.90;;;;;;5094480;28;19912;-68
2023/01/30 11:34:15;;;;;;;;;;;2.30;99.90;;;;;;5085831;28;19943;-66
2023/01/30 11:36:41;;;;;;;;;;;2.60;99.90;;;;;;5074992;28;19917;-69
2023/01/30 11:39:13;;;;;;;;;;;2.60;99.90;;;;;;5074609;28;19913;-67
2023/01/30 11:41:43;;;;;;;;;;;2.90;99.90;;;;;;5104599;28;20378;-68
2023/01/30 11:44:09;;;;;;;;;;;2.90;99.90;;;;;;5096171;28;20605;-67
2023/01/30 11:46:36;;;;;;;;;;;2.40;99.90;;;;;;5093998;28;19912;-69
2023/01/30 11:49:13;;;;;;;;;;;2.70;99.90;;;;;;5094375;28;19938;-69
2023/01/30 11:51:39;;;;;;;;;;;3.00;99.90;;;;;;5094769;28;19912;-69
2023/01/30 11:54:06;;;;;;;;;;;3.20;99.90;;;;;;5094658;28;19923;-70
2023/01/30 11:56:50;;;;;;;;;;;3.40;99.90;;;;;;5095571;28;19912;-67
2023/01/30 11:59:16;;;;;;;;;;;4.00;99.90;;;;;;5095346;28;19967;-68
2023/01/30 12:01:42;;;;;;;;;;;4.20;99.90;;;;;;5093785;28;19966;-68
2023/01/30 12:04:10;;;;;;;;;;;4.10;99.90;;;;;;5094104;28;20294;-66
2023/01/30 12:06:37;;;;;;;;;;;4.00;99.90;;;;;;5092746;28;20283;-69
2023/01/30 12:09:03;;;;;;;;;;;3.80;99.90;;;;;;5093414;28;19913;-69
2023/01/30 12:11:35;;;;;;;;;;;3.90;99.90;;;;;;5093467;28;19920;-69
2023/01/30 12:14:08;;;;;;;;;;;4.10;99.90;;;;;;5095513;28;19960;-67
2023/01/30 12:16:33;;;;;;;;;;;;;;;;;;5093031;28;19923;-70
2023/01/30 12:19:05;;;;;;;;;;;5.00;99.90;;;;;;5093618;28;19920;-68
2023/01/30 12:21:30;;;;;;;;;;;5.00;99.90;;;;;;5092709;28;19923;-69
2023/01/30 12:24:10;;;;;;;;;;;4.20;99.90;;;;;;5093907;28;20283;-67
2023/01/30 12:26:46;;;;;;;;;;;4.40;99.90;;;;;;5093805;28;20360;-68
2023/01/30 12:29:28;;;;;;;;;;;4.20;99.90;;;;;;5093181;28;19912;-70
2023/01/30 12:32:11;;;;;;;;;;;4.10;99.90;;;;;;5093400;28;19991;-70
2023/01/30 12:34:36;;;;;;;;;;;4.00;99.90;;;;;;5093653;28;20291;-67
2023/01/30 12:37:02;;;;;;;;;;;3.80;99.90;;;;;;5092456;28;19912;-69
2023/01/30 12:39:27;;;;;;;;;;;3.60;99.90;;;;;;5095494;28;19920;-67
2023/01/30 12:42:20;;;;;;;;;;;3.50;99.90;;;;;;5094076;28;19916;-67
2023/01/30 12:44:51;;;;;;;;;;;3.50;99.90;;;;;;5093233;28;19916;-67
2023/01/30 12:47:20;;;;;;;;;;;3.60;99.90;;;;;;5092633;28;19919;-69
2023/01/30 12:49:52;;;;;;;;;;;3.20;99.90;;;;;;5092898;28;19915;-67
2023/01/30 12:52:27;;;;;;;;;;;3.20;99.90;;;;;;5090639;28;19912;-68
2023/01/30 12:55:11;;;;;;;;;;;3.10;99.90;;;;;;5090754;28;19920;-70
2023/01/30 12:57:43;;;;;;;;;;;2.90;99.90;;;;;;5092143;28;19989;-69
2023/01/30 13:00:30;;;;;;;;;;;3.00;99.90;;;;;;5092840;28;19915;-67
2023/01/30 13:03:25;;;;;;;;;;;3.00;99.90;;;;;;5072210;28;19912;-67
2023/01/30 13:05:55;;;;;;;;;;;3.10;99.90;;;;;;5063396;28;19912;-67
2023/01/30 13:08:34;;;;;;;;;;;3.00;99.90;;;;;;5092346;28;20375;-69
2023/01/30 13:11:12;;;;;;;;;;;3.00;99.90;;;;;;5080574;28;20390;-69
2023/01/30 13:13:41;;;;;;;;;;;3.10;99.90;;;;;;5094591;28;19912;-68
2023/01/30 13:16:17;;;;;;;;;;;3.30;99.90;;;;;;5094575;28;19920;-69
2023/01/30 13:18:54;;;;;;;;;;;3.60;99.90;;;;;;5093385;28;19920;-69
2023/01/30 13:21:35;;;;;;;;;;;3.50;99.90;;;;;;5093774;28;19912;-69
2023/01/30 13:24:04;;;;;;;;;;;3.20;99.90;;;;;;5094301;28;20286;-69
2023/01/30 13:26:33;;;;;;;;;;;3.20;99.90;;;;;;5093015;28;20266;-69
2023/01/30 13:29:02;;;;;;;;;;;3.20;99.90;;;;;;5094304;28;19952;-67
2023/01/30 13:31:30;;;;;;;;;;;3.30;99.90;;;;;;5093180;28;20406;-67
2023/01/30 13:34:06;;;;;;;;;;;3.30;99.90;;;;;;5094432;28;19913;-66
2023/01/30 13:36:37;;;;;;;;;;;3.30;99.90;;;;;;5094176;28;19923;-68
2023/01/30 13:39:12;;;;;;;;;;;3.00;99.90;;;;;;5092911;28;19955;-68
2023/01/30 13:41:56;;;;;;;;;;;2.90;99.90;;;;;;5093813;28;20398;-66
2023/01/30 13:44:25;;;;;;;;;;;3.10;99.90;;;;;;5094377;28;19977;-67
2023/01/30 13:46:51;;;;;;;;;;;2.90;99.90;;;;;;5094027;28;19919;-68
2023/01/30 13:49:17;;;;;;;;;;;2.90;99.90;;;;;;5094209;28;20355;-68
2023/01/30 13:52:02;;;;;;;;;;;3.10;99.90;;;;;;5093006;28;19964;-67
2023/01/30 13:54:28;;;;;;;;;;;2.90;99.90;;;;;;5093421;28;19930;-67
2023/01/30 13:56:53;;;;;;;;;;;3.20;99.90;;;;;;5092866;28;20297;-68
2023/01/30 13:59:22;;;;;;;;;;;3.80;99.90;;;;;;5091909;28;19912;-68
2023/01/30 14:02:02;;;;;;;;;;;3.70;99.90;;;;;;5090693;28;19916;-67
2023/01/30 14:04:38;;;;;;;;;;;3.40;99.90;;;;;;5092407;28;20003;-68
2023/01/30 14:07:15;;;;;;;;;;;3.60;99.90;;;;;;5092807;28;19966;-67
2023/01/30 14:09:45;;;;;;;;;;;3.40;99.90;;;;;;5093612;28;19916;-67
2023/01/30 14:12:31;;;;;;;;;;;3.40;99.90;;;;;;5093610;28;19919;-68
2023/01/30 14:14:59;;;;;;;;;;;3.50;99.90;;;;;;5085170;28;19927;-68
2023/01/30 14:17:25;;;;;;;;;;;3.80;99.90;;;;;;5090596;28;19962;-67
2023/01/30 14:19:53;;;;;;;;;;;3.70;99.90;;;;;;5090660;28;19944;-68
2023/01/30 14:22:21;;;;;;;;;;;3.80;99.90;;;;;;5074749;28;20310;-68
2023/01/30 14:25:05;;;;;;;;;;;3.60;99.90;;;;;;5071306;28;19917;-66
2023/01/30 14:27:31;;;;;;;;;;;3.70;99.90;;;;;;5071055;28;19923;-68
2023/01/30 14:29:57;;;;;;;;;;;3.80;99.90;;;;;;5072717;28;19913;-68
2023/01/30 14:32:23;;;;;;;;;;;4.00;99.90;;;;;;5075076;28;19913;-68